Terminal Aerodrome Forecast
Issued by NWS

Home | Current Version | Previous Version | Text Only | Print | Product List | Glossary On
Versions: 1 2 3 4 5 6 7 8 9 10 11 12 13 14 15 16 17 18 19 20 21 22 23 24 25 26 27 28 29 30
132
FTAK31 PANC 051139
TAFADU
TAF
PADU 051139Z 0512/0612 36016G24KT P6SM -RA SCT015 OVC020
     FM051500 33024G35KT P6SM -RA BKN020
     FM060700 31024G33KT P6SM VCSH BKN035=

USA.gov is the U.S. government's official web portal to all federal, state and local government web resources and services.